EDHL

Lübeck Blankensee Airport

Lübeck, Germany
METAR EDHL 171850Z 25002KT CAVOK 19/13 Q1018
Observed Flight Rules
Aug-17 @ 18:50 UTC (8 hours ago) Visual Flight Rules
Wind Visibility Clouds
250° at 2 knots 10,000+ meters
  • Clear skies
Temperatures Readings
Current 19°C / 66°F
Dewpoint 13°C / 55°F
Humidity 68%
Altimeter 30.06" Hg
Pressure 1018 hPa
Elevation 16
METAR EDHL 171850Z 25002KT CAVOK 19/13 Q1018
Observed Flight Rules
Aug-17 @ 18:50 UTC
(8 hours ago)
VFR
Wind Visibility
250° at 2 knots 10,000+ meters
Clouds
  • Clear skies
Temperature Dewpoint
19°C / 66°F 13°C / 55°F
Humidity Altimeter Pressure
68% 30.06" Hg 1018 hPa